Bowling Green, South Carolina
Current Conditions -  °F | °C
As of 2:54 PM on Monday 26 Jan 2015 (Local Time) from KAKH Reporting Station
Overcast Overcast  
Wind Chill: 11°   Ceiling: 5500
Heat Index: 11°   Visibility: 10mi
Dew Point:   Wind: 3mph
Humidity: 49%   Direction: NA
Pressure: 29.62"   Gusts: NA
Location:  35.15°N, 81.21°W
Report Text: KAKH 261954Z AUTO VRB03KT 10SM SCT043 BKN055 OVC095 11/01 A2962 RMK AO2 SLP029 T01110006
Loading
Personal Weather Stations






























Interactive Weather Map New forecast layout! Learn more

10-Day Weather Forecast

Advertisements
Track Severe Weather on mobile